sensor_id;sensor_type;location;lat;lon;timestamp;pressure;altitude;pressure_sealevel;temperature;humidity
62458;BME280;48509;52.122;5.250;2023-04-27T00:03:09;102125.0;;;3.6;96.08
62458;BME280;48509;52.122;5.250;2023-04-27T00:04:45;102123.0;;;3.59;97.82
62458;BME280;48509;52.122;5.250;2023-04-27T00:06:22;102121.0;;;3.36;97.88
62458;BME280;48509;52.122;5.250;2023-04-27T00:09:34;102120.0;;;3.45;99.08
62458;BME280;48509;52.122;5.250;2023-04-27T00:11:10;102123.0;;;3.3;99.48
62458;BME280;48509;52.122;5.250;2023-04-27T00:12:46;102125.0;;;3.31;99.54
62458;BME280;48509;52.122;5.250;2023-04-27T00:15:59;102122.0;;;3.39;98.48
62458;BME280;48509;52.122;5.250;2023-04-27T00:17:36;102123.0;;;3.5;97.65
62458;BME280;48509;52.122;5.250;2023-04-27T00:19:12;102128.0;;;3.42;97.62
62458;BME280;48509;52.122;5.250;2023-04-27T00:20:48;102123.0;;;3.37;98.55
62458;BME280;48509;52.122;5.250;2023-04-27T00:24:00;102125.0;;;3.34;99.22
62458;BME280;48509;52.122;5.250;2023-04-27T00:25:37;102120.0;;;3.19;99.33
62458;BME280;48509;52.122;5.250;2023-04-27T00:27:13;102123.0;;;3.24;99.93
62458;BME280;48509;52.122;5.250;2023-04-27T00:30:26;102120.0;;;3.27;100.0
62458;BME280;48509;52.122;5.250;2023-04-27T00:32:02;102119.0;;;3.2;100.0
62458;BME280;48509;52.122;5.250;2023-04-27T00:33:38;102118.0;;;3.15;100.0
62458;BME280;48509;52.122;5.250;2023-04-27T00:36:50;102122.0;;;3.23;100.0
62458;BME280;48509;52.122;5.250;2023-04-27T00:38:26;102119.0;;;3.2;100.0
62458;BME280;48509;52.122;5.250;2023-04-27T00:40:04;102116.0;;;3.19;100.0
62458;BME280;48509;52.122;5.250;2023-04-27T00:43:17;102120.0;;;3.22;99.91
62458;BME280;48509;52.122;5.250;2023-04-27T00:44:53;102124.0;;;3.15;100.0
62458;BME280;48509;52.122;5.250;2023-04-27T00:46:32;102127.0;;;3.1;99.88
62458;BME280;48509;52.122;5.250;2023-04-27T00:48:09;102130.0;;;3.11;99.16
62458;BME280;48509;52.122;5.250;2023-04-27T00:51:22;102126.0;;;3.04;100.0
62458;BME280;48509;52.122;5.250;2023-04-27T00:52:59;102121.0;;;3.01;100.0
62458;BME280;48509;52.122;5.250;2023-04-27T00:54:37;102121.0;;;2.99;100.0
62458;BME280;48509;52.122;5.250;2023-04-27T00:57:49;102126.0;;;3.05;99.42
62458;BME280;48509;52.122;5.250;2023-04-27T00:59:25;102117.0;;;3.03;99.46
62458;BME280;48509;52.122;5.250;2023-04-27T01:01:01;102114.0;;;3.01;100.0
62458;BME280;48509;52.122;5.250;2023-04-27T01:04:15;102111.0;;;2.94;99.03
62458;BME280;48509;52.122;5.250;2023-04-27T01:05:51;102103.0;;;2.98;99.68
62458;BME280;48509;52.122;5.250;2023-04-27T01:07:28;102105.0;;;2.94;100.0
62458;BME280;48509;52.122;5.250;2023-04-27T01:09:04;102106.0;;;2.87;99.57
62458;BME280;48509;52.122;5.250;2023-04-27T01:12:16;102105.0;;;2.93;99.15
62458;BME280;48509;52.122;5.250;2023-04-27T01:13:52;102105.0;;;3.04;98.13
62458;BME280;48509;52.122;5.250;2023-04-27T01:15:30;102110.0;;;3.01;97.53
62458;BME280;48509;52.122;5.250;2023-04-27T01:18:42;102106.0;;;3.05;96.76
62458;BME280;48509;52.122;5.250;2023-04-27T01:20:18;102106.0;;;3.15;96.77
62458;BME280;48509;52.122;5.250;2023-04-27T01:21:54;102111.0;;;3.12;96.94
62458;BME280;48509;52.122;5.250;2023-04-27T01:25:07;102118.0;;;2.94;97.78
62458;BME280;48509;52.122;5.250;2023-04-27T01:26:43;102115.0;;;2.93;98.2
62458;BME280;48509;52.122;5.250;2023-04-27T01:28:19;102122.0;;;2.81;97.45
62458;BME280;48509;52.122;5.250;2023-04-27T01:29:55;102127.0;;;2.8;98.27
62458;BME280;48509;52.122;5.250;2023-04-27T01:33:08;102119.0;;;2.72;99.55
62458;BME280;48509;52.122;5.250;2023-04-27T01:34:44;102119.0;;;2.68;99.11
62458;BME280;48509;52.122;5.250;2023-04-27T01:36:21;102113.0;;;2.67;98.96
62458;BME280;48509;52.122;5.250;2023-04-27T01:39:33;102106.0;;;2.56;98.69
62458;BME280;48509;52.122;5.250;2023-04-27T01:41:09;102106.0;;;2.67;98.98
62458;BME280;48509;52.122;5.250;2023-04-27T01:42:45;102105.0;;;2.61;99.47
62458;BME280;48509;52.122;5.250;2023-04-27T01:46:04;102100.0;;;2.52;99.99
62458;BME280;48509;52.122;5.250;2023-04-27T01:47:40;102092.0;;;2.54;99.77
62458;BME280;48509;52.122;5.250;2023-04-27T01:49:16;102098.0;;;2.64;100.0
62458;BME280;48509;52.122;5.250;2023-04-27T01:50:53;102097.0;;;2.76;99.13
62458;BME280;48509;52.122;5.250;2023-04-27T01:54:05;102093.0;;;2.77;98.05
62458;BME280;48509;52.122;5.250;2023-04-27T01:55:42;102096.0;;;2.62;99.25
62458;BME280;48509;52.122;5.250;2023-04-27T01:57:18;102095.0;;;2.59;100.0
62458;BME280;48509;52.122;5.250;2023-04-27T02:00:31;102093.0;;;2.56;100.0
62458;BME280;48509;52.122;5.250;2023-04-27T02:02:07;102089.0;;;2.48;100.0
62458;BME280;48509;52.122;5.250;2023-04-27T02:03:43;102092.0;;;2.46;100.0
62458;BME280;48509;52.122;5.250;2023-04-27T02:06:55;102093.0;;;2.48;100.0
62458;BME280;48509;52.122;5.250;2023-04-27T02:08:31;102090.0;;;2.48;100.0
62458;BME280;48509;52.122;5.250;2023-04-27T02:10:08;102091.0;;;2.38;100.0
62458;BME280;48509;52.122;5.250;2023-04-27T02:11:44;102092.0;;;2.44;100.0
62458;BME280;48509;52.122;5.250;2023-04-27T02:14:56;102093.0;;;2.44;99.9
62458;BME280;48509;52.122;5.250;2023-04-27T02:16:33;102092.0;;;2.44;100.0
62458;BME280;48509;52.122;5.250;2023-04-27T02:18:09;102091.0;;;2.42;100.0
62458;BME280;48509;52.122;5.250;2023-04-27T02:21:22;102095.0;;;2.48;99.81
62458;BME280;48509;52.122;5.250;2023-04-27T02:22:58;102093.0;;;2.54;99.52
62458;BME280;48509;52.122;5.250;2023-04-27T02:24:34;102093.0;;;2.5;99.12
62458;BME280;48509;52.122;5.250;2023-04-27T02:27:51;102090.0;;;2.46;99.74
62458;BME280;48509;52.122;5.250;2023-04-27T02:29:29;102091.0;;;2.48;100.0
62458;BME280;48509;52.122;5.250;2023-04-27T02:31:05;102092.0;;;2.48;99.61
62458;BME280;48509;52.122;5.250;2023-04-27T02:32:42;102091.0;;;2.48;99.3
62458;BME280;48509;52.122;5.250;2023-04-27T02:35:54;102089.0;;;2.44;99.58
62458;BME280;48509;52.122;5.250;2023-04-27T02:37:30;102086.0;;;2.38;99.49
62458;BME280;48509;52.122;5.250;2023-04-27T02:39:06;102086.0;;;2.5;99.41
62458;BME280;48509;52.122;5.250;2023-04-27T02:42:18;102082.0;;;2.56;99.59
62458;BME280;48509;52.122;5.250;2023-04-27T02:43:54;102078.0;;;2.56;99.18
62458;BME280;48509;52.122;5.250;2023-04-27T02:45:31;102075.0;;;2.61;99.41
62458;BME280;48509;52.122;5.250;2023-04-27T02:48:43;102077.0;;;2.6;98.54
62458;BME280;48509;52.122;5.250;2023-04-27T02:50:19;102078.0;;;2.46;99.58
62458;BME280;48509;52.122;5.250;2023-04-27T02:51:55;102071.0;;;2.41;100.0
62458;BME280;48509;52.122;5.250;2023-04-27T02:53:31;102068.0;;;2.36;100.0
62458;BME280;48509;52.122;5.250;2023-04-27T02:56:44;102063.0;;;2.37;100.0
62458;BME280;48509;52.122;5.250;2023-04-27T02:58:20;102071.0;;;2.34;100.0
62458;BME280;48509;52.122;5.250;2023-04-27T02:59:57;102073.0;;;2.31;100.0
62458;BME280;48509;52.122;5.250;2023-04-27T03:03:09;102074.0;;;2.31;100.0
62458;BME280;48509;52.122;5.250;2023-04-27T03:04:45;102072.0;;;2.36;100.0
62458;BME280;48509;52.122;5.250;2023-04-27T03:06:21;102075.0;;;2.42;99.88
62458;BME280;48509;52.122;5.250;2023-04-27T03:09:34;102077.0;;;2.44;99.97
62458;BME280;48509;52.122;5.250;2023-04-27T03:11:09;102075.0;;;2.41;99.81
62458;BME280;48509;52.122;5.250;2023-04-27T03:12:46;102077.0;;;2.34;100.0
62458;BME280;48509;52.122;5.250;2023-04-27T03:15:58;102082.0;;;2.32;100.0
62458;BME280;48509;52.122;5.250;2023-04-27T03:17:34;102082.0;;;2.31;100.0
62458;BME280;48509;52.122;5.250;2023-04-27T03:19:10;102086.0;;;2.37;100.0
62458;BME280;48509;52.122;5.250;2023-04-27T03:20:46;102087.0;;;2.36;99.96
62458;BME280;48509;52.122;5.250;2023-04-27T03:23:59;102088.0;;;2.44;99.67
62458;BME280;48509;52.122;5.250;2023-04-27T03:25:35;102093.0;;;2.44;99.65
62458;BME280;48509;52.122;5.250;2023-04-27T03:27:11;102091.0;;;2.5;99.24
62458;BME280;48509;52.122;5.250;2023-04-27T03:30:23;102087.0;;;2.46;99.17
62458;BME280;48509;52.122;5.250;2023-04-27T03:31:59;102083.0;;;2.38;100.0
62458;BME280;48509;52.122;5.250;2023-04-27T03:33:36;102083.0;;;2.35;100.0
62458;BME280;48509;52.122;5.250;2023-04-27T03:36:48;102087.0;;;2.4;100.0
62458;BME280;48509;52.122;5.250;2023-04-27T03:38:26;102085.0;;;2.48;100.0
62458;BME280;48509;52.122;5.250;2023-04-27T03:40:03;102086.0;;;2.36;100.0
62458;BME280;48509;52.122;5.250;2023-04-27T03:41:40;102082.0;;;2.48;100.0
62458;BME280;48509;52.122;5.250;2023-04-27T03:44:52;102087.0;;;2.62;99.44
62458;BME280;48509;52.122;5.250;2023-04-27T03:46:28;102082.0;;;2.56;98.98
62458;BME280;48509;52.122;5.250;2023-04-27T03:48:05;102083.0;;;2.41;99.63
62458;BME280;48509;52.122;5.250;2023-04-27T03:51:16;102090.0;;;2.52;99.08
62458;BME280;48509;52.122;5.250;2023-04-27T03:52:52;102083.0;;;2.36;100.0
62458;BME280;48509;52.122;5.250;2023-04-27T03:54:30;102084.0;;;2.32;100.0
62458;BME280;48509;52.122;5.250;2023-04-27T03:57:42;102084.0;;;2.34;100.0
62458;BME280;48509;52.122;5.250;2023-04-27T03:59:18;102086.0;;;2.34;100.0
62458;BME280;48509;52.122;5.250;2023-04-27T04:00:54;102085.0;;;2.52;100.0
62458;BME280;48509;52.122;5.250;2023-04-27T04:04:06;102084.0;;;2.42;99.39
62458;BME280;48509;52.122;5.250;2023-04-27T04:05:42;102085.0;;;2.38;100.0
62458;BME280;48509;52.122;5.250;2023-04-27T04:07:19;102092.0;;;2.41;99.47
62458;BME280;48509;52.122;5.250;2023-04-27T04:08:55;102092.0;;;2.5;99.58
62458;BME280;48509;52.122;5.250;2023-04-27T04:12:07;102095.0;;;2.4;100.0
62458;BME280;48509;52.122;5.250;2023-04-27T04:13:43;102092.0;;;2.52;100.0
62458;BME280;48509;52.122;5.250;2023-04-27T04:15:19;102093.0;;;2.46;100.0
62458;BME280;48509;52.122;5.250;2023-04-27T04:18:31;102097.0;;;2.46;100.0
62458;BME280;48509;52.122;5.250;2023-04-27T04:20:08;102099.0;;;2.44;100.0
62458;BME280;48509;52.122;5.250;2023-04-27T04:21:45;102101.0;;;2.42;100.0
62458;BME280;48509;52.122;5.250;2023-04-27T04:24:57;102105.0;;;2.38;100.0
62458;BME280;48509;52.122;5.250;2023-04-27T04:26:33;102105.0;;;2.32;99.86
62458;BME280;48509;52.122;5.250;2023-04-27T04:28:09;102105.0;;;2.36;99.81
62458;BME280;48509;52.122;5.250;2023-04-27T04:29:45;102108.0;;;2.35;99.83
62458;BME280;48509;52.122;5.250;2023-04-27T04:32:57;102109.0;;;2.44;99.6
62458;BME280;48509;52.122;5.250;2023-04-27T04:34:34;102111.0;;;2.31;100.0
62458;BME280;48509;52.122;5.250;2023-04-27T04:36:10;102109.0;;;2.29;100.0
62458;BME280;48509;52.122;5.250;2023-04-27T04:39:22;102113.0;;;2.31;100.0
62458;BME280;48509;52.122;5.250;2023-04-27T04:40:58;102113.0;;;2.25;100.0
62458;BME280;48509;52.122;5.250;2023-04-27T04:42:34;102118.0;;;2.29;100.0
62458;BME280;48509;52.122;5.250;2023-04-27T04:45:46;102118.0;;;2.27;100.0
62458;BME280;48509;52.122;5.250;2023-04-27T04:47:23;102114.0;;;2.27;100.0
62458;BME280;48509;52.122;5.250;2023-04-27T04:48:59;102121.0;;;2.25;100.0
62458;BME280;48509;52.122;5.250;2023-04-27T04:52:11;102126.0;;;2.29;100.0
62458;BME280;48509;52.122;5.250;2023-04-27T04:53:47;102124.0;;;2.48;100.0
62458;BME280;48509;52.122;5.250;2023-04-27T04:55:24;102125.0;;;2.48;100.0
62458;BME280;48509;52.122;5.250;2023-04-27T04:57:00;102123.0;;;2.61;100.0
62458;BME280;48509;52.122;5.250;2023-04-27T05:00:14;102120.0;;;2.58;100.0
62458;BME280;48509;52.122;5.250;2023-04-27T05:01:49;102120.0;;;2.54;100.0
62458;BME280;48509;52.122;5.250;2023-04-27T05:03:26;102122.0;;;2.54;100.0
62458;BME280;48509;52.122;5.250;2023-04-27T05:06:39;102121.0;;;2.66;100.0
62458;BME280;48509;52.122;5.250;2023-04-27T05:08:15;102122.0;;;2.71;100.0
62458;BME280;48509;52.122;5.250;2023-04-27T05:09:51;102119.0;;;2.76;100.0
62458;BME280;48509;52.122;5.250;2023-04-27T05:13:03;102121.0;;;2.71;100.0
62458;BME280;48509;52.122;5.250;2023-04-27T05:14:40;102124.0;;;2.89;100.0
62458;BME280;48509;52.122;5.250;2023-04-27T05:16:16;102123.0;;;2.84;100.0
62458;BME280;48509;52.122;5.250;2023-04-27T05:17:53;102121.0;;;2.83;100.0
62458;BME280;48509;52.122;5.250;2023-04-27T05:21:12;102117.0;;;2.98;100.0
62458;BME280;48509;52.122;5.250;2023-04-27T05:22:48;102119.0;;;2.99;100.0
62458;BME280;48509;52.122;5.250;2023-04-27T05:24:24;102125.0;;;2.99;100.0
62458;BME280;48509;52.122;5.250;2023-04-27T05:27:36;102122.0;;;3.06;100.0
62458;BME280;48509;52.122;5.250;2023-04-27T05:29:13;102118.0;;;3.1;100.0
62458;BME280;48509;52.122;5.250;2023-04-27T05:30:49;102124.0;;;3.17;100.0
62458;BME280;48509;52.122;5.250;2023-04-27T05:34:01;102120.0;;;3.26;100.0
62458;BME280;48509;52.122;5.250;2023-04-27T05:35:37;102123.0;;;3.3;100.0
62458;BME280;48509;52.122;5.250;2023-04-27T05:37:13;102126.0;;;3.36;100.0
62458;BME280;48509;52.122;5.250;2023-04-27T05:38:49;102130.0;;;3.49;100.0
62458;BME280;48509;52.122;5.250;2023-04-27T05:42:03;102126.0;;;3.59;100.0
62458;BME280;48509;52.122;5.250;2023-04-27T05:43:39;102127.0;;;3.58;100.0
62458;BME280;48509;52.122;5.250;2023-04-27T05:45:15;102123.0;;;3.64;100.0
62458;BME280;48509;52.122;5.250;2023-04-27T05:48:27;102126.0;;;3.67;100.0
62458;BME280;48509;52.122;5.250;2023-04-27T05:50:04;102126.0;;;3.79;100.0
62458;BME280;48509;52.122;5.250;2023-04-27T05:51:40;102127.0;;;3.95;100.0
62458;BME280;48509;52.122;5.250;2023-04-27T05:54:52;102128.0;;;3.96;100.0
62458;BME280;48509;52.122;5.250;2023-04-27T05:56:29;102124.0;;;4.05;100.0
62458;BME280;48509;52.122;5.250;2023-04-27T05:58:05;102125.0;;;4.1;100.0
62458;BME280;48509;52.122;5.250;2023-04-27T06:01:18;102128.0;;;4.2;100.0
62458;BME280;48509;52.122;5.250;2023-04-27T06:02:54;102126.0;;;4.32;100.0
62458;BME280;48509;52.122;5.250;2023-04-27T06:04:30;102126.0;;;4.47;100.0
62458;BME280;48509;52.122;5.250;2023-04-27T06:06:06;102123.0;;;4.61;100.0
62458;BME280;48509;52.122;5.250;2023-04-27T06:09:19;102121.0;;;4.78;99.79
62458;BME280;48509;52.122;5.250;2023-04-27T06:10:55;102125.0;;;4.92;99.92
62458;BME280;48509;52.122;5.250;2023-04-27T06:12:31;102123.0;;;5.03;99.28
62458;BME280;48509;52.122;5.250;2023-04-27T06:15:43;102123.0;;;5.2;99.55
62458;BME280;48509;52.122;5.250;2023-04-27T06:17:20;102126.0;;;5.31;99.24
62458;BME280;48509;52.122;5.250;2023-04-27T06:18:56;102120.0;;;5.52;98.73
62458;BME280;48509;52.122;5.250;2023-04-27T06:22:09;102121.0;;;5.7;97.83
62458;BME280;48509;52.122;5.250;2023-04-27T06:23:45;102122.0;;;5.8;97.43
62458;BME280;48509;52.122;5.250;2023-04-27T06:25:21;102119.0;;;5.85;97.45
62458;BME280;48509;52.122;5.250;2023-04-27T06:26:57;102121.0;;;5.97;95.94
62458;BME280;48509;52.122;5.250;2023-04-27T06:30:10;102121.0;;;5.91;97.16
62458;BME280;48509;52.122;5.250;2023-04-27T06:31:46;102126.0;;;6.23;95.66
62458;BME280;48509;52.122;5.250;2023-04-27T06:33:22;102130.0;;;6.27;94.52
62458;BME280;48509;52.122;5.250;2023-04-27T06:36:35;102125.0;;;6.35;93.61
62458;BME280;48509;52.122;5.250;2023-04-27T06:38:11;102127.0;;;6.53;92.48
62458;BME280;48509;52.122;5.250;2023-04-27T06:39:47;102126.0;;;6.64;91.06
62458;BME280;48509;52.122;5.250;2023-04-27T06:43:01;102131.0;;;6.78;90.95
62458;BME280;48509;52.122;5.250;2023-04-27T06:44:37;102133.0;;;6.84;89.62
62458;BME280;48509;52.122;5.250;2023-04-27T06:46:13;102132.0;;;6.84;84.44
62458;BME280;48509;52.122;5.250;2023-04-27T06:47:50;102138.0;;;7.0;82.59
62458;BME280;48509;52.122;5.250;2023-04-27T06:51:02;102130.0;;;7.21;83.71
62458;BME280;48509;52.122;5.250;2023-04-27T06:52:39;102127.0;;;7.41;82.27
62458;BME280;48509;52.122;5.250;2023-04-27T06:54:15;102126.0;;;7.47;81.53
62458;BME280;48509;52.122;5.250;2023-04-27T06:57:27;102126.0;;;7.67;79.59
62458;BME280;48509;52.122;5.250;2023-04-27T06:59:04;102120.0;;;7.71;78.88
62458;BME280;48509;52.122;5.250;2023-04-27T07:00:40;102124.0;;;7.84;76.91
62458;BME280;48509;52.122;5.250;2023-04-27T07:03:52;102123.0;;;8.02;77.13
62458;BME280;48509;52.122;5.250;2023-04-27T07:05:27;102118.0;;;8.0;77.17
62458;BME280;48509;52.122;5.250;2023-04-27T07:07:03;102120.0;;;8.17;78.06
62458;BME280;48509;52.122;5.250;2023-04-27T07:10:18;102122.0;;;8.24;72.86
62458;BME280;48509;52.122;5.250;2023-04-27T07:11:54;102122.0;;;8.38;73.27
62458;BME280;48509;52.122;5.250;2023-04-27T07:13:30;102123.0;;;8.47;72.61
62458;BME280;48509;52.122;5.250;2023-04-27T07:15:07;102134.0;;;8.52;73.08
62458;BME280;48509;52.122;5.250;2023-04-27T07:18:21;102140.0;;;8.73;71.56
62458;BME280;48509;52.122;5.250;2023-04-27T07:19:57;102139.0;;;8.88;72.44
62458;BME280;48509;52.122;5.250;2023-04-27T07:21:33;102137.0;;;8.9;69.8
62458;BME280;48509;52.122;5.250;2023-04-27T07:24:46;102138.0;;;9.02;69.55
62458;BME280;48509;52.122;5.250;2023-04-27T07:26:22;102138.0;;;9.18;68.14
62458;BME280;48509;52.122;5.250;2023-04-27T07:27:58;102133.0;;;9.26;69.37
62458;BME280;48509;52.122;5.250;2023-04-27T07:31:10;102136.0;;;9.32;68.05
62458;BME280;48509;52.122;5.250;2023-04-27T07:32:48;102125.0;;;9.4;66.41
62458;BME280;48509;52.122;5.250;2023-04-27T07:34:25;102126.0;;;9.39;66.47
62458;BME280;48509;52.122;5.250;2023-04-27T07:36:02;102122.0;;;9.63;67.06
62458;BME280;48509;52.122;5.250;2023-04-27T07:39:14;102118.0;;;9.58;66.5
62458;BME280;48509;52.122;5.250;2023-04-27T07:40:50;102106.0;;;9.75;66.88
62458;BME280;48509;52.122;5.250;2023-04-27T07:42:26;102108.0;;;9.74;64.8
62458;BME280;48509;52.122;5.250;2023-04-27T07:45:39;102102.0;;;9.96;63.64
62458;BME280;48509;52.122;5.250;2023-04-27T07:47:15;102106.0;;;10.08;62.77
62458;BME280;48509;52.122;5.250;2023-04-27T07:48:51;102110.0;;;10.24;64.7
62458;BME280;48509;52.122;5.250;2023-04-27T07:52:06;102117.0;;;10.36;65.49
62458;BME280;48509;52.122;5.250;2023-04-27T07:53:42;102116.0;;;10.3;62.22
62458;BME280;48509;52.122;5.250;2023-04-27T07:55:19;102115.0;;;10.5;63.33
62458;BME280;48509;52.122;5.250;2023-04-27T07:56:55;102119.0;;;10.54;61.21
62458;BME280;48509;52.122;5.250;2023-04-27T08:00:08;102119.0;;;10.46;61.45
62458;BME280;48509;52.122;5.250;2023-04-27T08:01:44;102122.0;;;10.51;62.2
62458;BME280;48509;52.122;5.250;2023-04-27T08:03:20;102121.0;;;10.44;61.8
62458;BME280;48509;52.122;5.250;2023-04-27T08:06:33;102120.0;;;10.65;59.7
62458;BME280;48509;52.122;5.250;2023-04-27T08:08:09;102121.0;;;10.73;58.83
62458;BME280;48509;52.122;5.250;2023-04-27T08:09:45;102126.0;;;10.74;57.7
62458;BME280;48509;52.122;5.250;2023-04-27T08:12:57;102125.0;;;10.81;57.61
62458;BME280;48509;52.122;5.250;2023-04-27T08:14:34;102128.0;;;10.92;58.45
62458;BME280;48509;52.122;5.250;2023-04-27T08:16:09;102128.0;;;11.02;58.32
62458;BME280;48509;52.122;5.250;2023-04-27T08:19:22;102128.0;;;10.85;55.44
62458;BME280;48509;52.122;5.250;2023-04-27T08:20:59;102121.0;;;10.7;56.08
62458;BME280;48509;52.122;5.250;2023-04-27T08:22:35;102125.0;;;10.81;58.87
62458;BME280;48509;52.122;5.250;2023-04-27T08:24:11;102130.0;;;11.01;56.15
62458;BME280;48509;52.122;5.250;2023-04-27T08:27:23;102123.0;;;11.06;56.49
62458;BME280;48509;52.122;5.250;2023-04-27T08:28:59;102123.0;;;11.24;57.98
62458;BME280;48509;52.122;5.250;2023-04-27T08:30:37;102123.0;;;11.41;56.56
62458;BME280;48509;52.122;5.250;2023-04-27T08:33:50;102121.0;;;11.28;54.1
62458;BME280;48509;52.122;5.250;2023-04-27T08:35:26;102122.0;;;11.3;54.86
62458;BME280;48509;52.122;5.250;2023-04-27T08:37:02;102114.0;;;11.48;52.93
62458;BME280;48509;52.122;5.250;2023-04-27T08:40:14;102114.0;;;11.54;55.49
62458;BME280;48509;52.122;5.250;2023-04-27T08:41:51;102114.0;;;11.56;55.81
62458;BME280;48509;52.122;5.250;2023-04-27T08:43:32;102120.0;;;11.66;52.3
62458;BME280;48509;52.122;5.250;2023-04-27T08:45:09;102113.0;;;11.6;56.93
62458;BME280;48509;52.122;5.250;2023-04-27T08:48:22;102106.0;;;11.66;56.46
62458;BME280;48509;52.122;5.250;2023-04-27T08:49:58;102111.0;;;11.64;54.67
62458;BME280;48509;52.122;5.250;2023-04-27T08:51:34;102111.0;;;11.73;53.07
62458;BME280;48509;52.122;5.250;2023-04-27T08:54:54;102103.0;;;11.82;54.81
62458;BME280;48509;52.122;5.250;2023-04-27T08:56:31;102103.0;;;11.97;52.5
62458;BME280;48509;52.122;5.250;2023-04-27T08:58:07;102105.0;;;12.06;54.05
62458;BME280;48509;52.122;5.250;2023-04-27T08:59:43;102106.0;;;12.2;54.11
62458;BME280;48509;52.122;5.250;2023-04-27T09:02:57;102110.0;;;12.24;54.75
62458;BME280;48509;52.122;5.250;2023-04-27T09:04:37;102109.0;;;12.2;53.62
62458;BME280;48509;52.122;5.250;2023-04-27T09:06:14;102111.0;;;12.31;50.41
62458;BME280;48509;52.122;5.250;2023-04-27T09:09:35;102107.0;;;12.32;51.74
62458;BME280;48509;52.122;5.250;2023-04-27T09:11:12;102103.0;;;12.37;53.0
62458;BME280;48509;52.122;5.250;2023-04-27T09:12:57;102110.0;;;12.34;51.41
62458;BME280;48509;52.122;5.250;2023-04-27T09:14:34;102103.0;;;12.53;50.17
62458;BME280;48509;52.122;5.250;2023-04-27T09:17:52;102105.0;;;12.6;50.38
62458;BME280;48509;52.122;5.250;2023-04-27T09:19:29;102097.0;;;12.7;50.14
62458;BME280;48509;52.122;5.250;2023-04-27T09:21:05;102100.0;;;12.79;49.92
62458;BME280;48509;52.122;5.250;2023-04-27T09:22:42;102101.0;;;13.09;53.02
62458;BME280;48509;52.122;5.250;2023-04-27T09:25:56;102097.0;;;13.0;52.95
62458;BME280;48509;52.122;5.250;2023-04-27T09:27:32;102102.0;;;12.53;49.09
62458;BME280;48509;52.122;5.250;2023-04-27T09:29:08;102098.0;;;12.77;52.99
62458;BME280;48509;52.122;5.250;2023-04-27T09:32:27;102092.0;;;12.74;48.56
62458;BME280;48509;52.122;5.250;2023-04-27T09:34:03;102089.0;;;12.67;47.18
62458;BME280;48509;52.122;5.250;2023-04-27T09:35:40;102091.0;;;12.82;49.87
62458;BME280;48509;52.122;5.250;2023-04-27T09:37:17;102090.0;;;12.84;50.85
62458;BME280;48509;52.122;5.250;2023-04-27T09:40:31;102093.0;;;12.84;52.01
62458;BME280;48509;52.122;5.250;2023-04-27T09:42:07;102098.0;;;13.06;50.81
62458;BME280;48509;52.122;5.250;2023-04-27T09:43:44;102098.0;;;13.04;49.76
62458;BME280;48509;52.122;5.250;2023-04-27T09:46:58;102092.0;;;13.15;50.07
62458;BME280;48509;52.122;5.250;2023-04-27T09:48:37;102094.0;;;12.94;48.87
62458;BME280;48509;52.122;5.250;2023-04-27T09:50:14;102085.0;;;13.0;45.05
62458;BME280;48509;52.122;5.250;2023-04-27T09:53:29;102082.0;;;12.98;49.53
62458;BME280;48509;52.122;5.250;2023-04-27T09:55:15;102078.0;;;13.23;50.9
62458;BME280;48509;52.122;5.250;2023-04-27T09:57:01;102080.0;;;13.24;47.96
62458;BME280;48509;52.122;5.250;2023-04-27T09:58:56;102080.0;;;13.41;46.7
62458;BME280;48509;52.122;5.250;2023-04-27T10:00:48;102080.0;;;13.52;43.5
62458;BME280;48509;52.122;5.250;2023-04-27T10:02:37;102076.0;;;13.56;46.08
62458;BME280;48509;52.122;5.250;2023-04-27T10:06:50;102077.0;;;13.5;50.66
62458;BME280;48509;52.122;5.250;2023-04-27T10:08:56;102075.0;;;13.68;44.01
62458;BME280;48509;52.122;5.250;2023-04-27T10:12:20;102078.0;;;13.68;47.56
62458;BME280;48509;52.122;5.250;2023-04-27T10:14:05;102085.0;;;13.36;44.91
62458;BME280;48509;52.122;5.250;2023-04-27T10:15:41;102083.0;;;13.41;47.5
62458;BME280;48509;52.122;5.250;2023-04-27T10:17:18;102083.0;;;13.57;43.08
62458;BME280;48509;52.122;5.250;2023-04-27T10:20:45;102077.0;;;13.58;41.8
62458;BME280;48509;52.122;5.250;2023-04-27T10:22:21;102073.0;;;13.66;43.52
62458;BME280;48509;52.122;5.250;2023-04-27T10:24:06;102080.0;;;13.82;42.72
62458;BME280;48509;52.122;5.250;2023-04-27T10:25:45;102080.0;;;13.9;44.12
62458;BME280;48509;52.122;5.250;2023-04-27T10:29:04;102074.0;;;13.62;44.0
62458;BME280;48509;52.122;5.250;2023-04-27T10:30:43;102067.0;;;13.69;45.33
62458;BME280;48509;52.122;5.250;2023-04-27T10:32:23;102076.0;;;13.58;43.32
62458;BME280;48509;52.122;5.250;2023-04-27T10:34:07;102080.0;;;13.69;47.13
62458;BME280;48509;52.122;5.250;2023-04-27T10:37:37;102082.0;;;13.67;39.94
62458;BME280;48509;52.122;5.250;2023-04-27T10:39:15;102076.0;;;13.88;43.47
62458;BME280;48509;52.122;5.250;2023-04-27T10:40:54;102076.0;;;13.85;44.48
62458;BME280;48509;52.122;5.250;2023-04-27T10:42:30;102067.0;;;13.98;44.43
62458;BME280;48509;52.122;5.250;2023-04-27T10:45:52;102074.0;;;14.02;44.26
62458;BME280;48509;52.122;5.250;2023-04-27T10:47:37;102073.0;;;14.25;44.54
62458;BME280;48509;52.122;5.250;2023-04-27T10:49:15;102073.0;;;14.45;39.4
62458;BME280;48509;52.122;5.250;2023-04-27T10:50:51;102076.0;;;14.51;39.47
62458;BME280;48509;52.122;5.250;2023-04-27T10:54:03;102081.0;;;14.31;37.21
62458;BME280;48509;52.122;5.250;2023-04-27T10:55:39;102072.0;;;14.22;40.76
62458;BME280;48509;52.122;5.250;2023-04-27T10:57:15;102070.0;;;14.41;40.39
62458;BME280;48509;52.122;5.250;2023-04-27T10:58:52;102071.0;;;14.27;39.99
62458;BME280;48509;52.122;5.250;2023-04-27T11:02:06;102068.0;;;14.25;40.96
62458;BME280;48509;52.122;5.250;2023-04-27T11:03:42;102069.0;;;14.37;40.87
62458;BME280;48509;52.122;5.250;2023-04-27T11:05:19;102061.0;;;14.54;44.0
62458;BME280;48509;52.122;5.250;2023-04-27T11:08:32;102061.0;;;14.39;38.4
62458;BME280;48509;52.122;5.250;2023-04-27T11:10:19;102056.0;;;14.57;37.71
62458;BME280;48509;52.122;5.250;2023-04-27T11:11:56;102056.0;;;14.37;37.6
62458;BME280;48509;52.122;5.250;2023-04-27T11:13:32;102048.0;;;14.38;40.71
62458;BME280;48509;52.122;5.250;2023-04-27T11:16:45;102043.0;;;14.41;39.6